createdAt,value
2018-08-13T00:01:59.414Z,3.35
2018-08-13T00:04:27.764Z,3.63
2018-08-13T00:06:56.063Z,3.80
2018-08-13T00:09:29.575Z,4.90
2018-08-13T00:11:57.925Z,3.90
2018-08-13T00:14:26.265Z,2.80
2018-08-13T00:16:54.608Z,3.60
2018-08-13T00:19:22.951Z,3.20
2018-08-13T00:21:51.289Z,4.83
2018-08-13T00:24:19.686Z,2.92
2018-08-13T00:26:48.069Z,6.97
2018-08-13T00:29:16.430Z,5.22
2018-08-13T00:31:44.785Z,4.40
2018-08-13T00:34:13.167Z,4.15
2018-08-13T00:36:41.516Z,4.47
2018-08-13T00:39:12.083Z,4.00
2018-08-13T00:41:40.476Z,2.67
2018-08-13T00:44:08.935Z,3.40
2018-08-13T00:46:37.357Z,3.83
2018-08-13T00:49:06.087Z,4.67
2018-08-13T00:51:35.524Z,3.13
2018-08-13T00:54:03.926Z,2.92
2018-08-13T00:56:32.268Z,3.45
2018-08-13T00:59:00.705Z,4.15
2018-08-13T01:01:29.151Z,3.20
2018-08-13T01:03:57.528Z,5.00
2018-08-13T01:06:25.911Z,4.05
2018-08-13T01:08:54.281Z,3.12
2018-08-13T01:11:22.636Z,5.93
2018-08-13T01:13:51.091Z,4.90
2018-08-13T01:16:19.411Z,3.30
2018-08-13T01:18:47.746Z,3.90
2018-08-13T01:21:16.121Z,3.60
2018-08-13T01:23:44.482Z,3.62
2018-08-13T01:26:13.130Z,5.37
2018-08-13T01:28:41.494Z,3.35
2018-08-13T01:31:09.897Z,3.37
2018-08-13T01:33:38.281Z,2.70
2018-08-13T01:36:06.989Z,3.97
2018-08-13T01:38:35.379Z,3.55
2018-08-13T01:41:03.749Z,4.25
2018-08-13T01:43:32.129Z,5.20
2018-08-13T01:46:00.472Z,4.67
2018-08-13T01:48:28.885Z,2.67
2018-08-13T01:50:57.233Z,2.90
2018-08-13T01:53:25.646Z,7.37
2018-08-13T01:55:53.999Z,7.40
2018-08-13T01:58:22.384Z,5.22
2018-08-13T02:00:50.766Z,3.40
2018-08-13T02:03:19.172Z,4.83
2018-08-13T02:05:47.498Z,3.50
2018-08-13T02:08:16.022Z,5.20
2018-08-13T02:10:44.422Z,6.10
2018-08-13T02:13:13.157Z,4.20
2018-08-13T02:15:41.493Z,4.42
2018-08-13T02:18:09.824Z,4.90
2018-08-13T02:20:38.352Z,6.12
2018-08-13T02:23:06.755Z,3.00
2018-08-13T02:25:35.092Z,3.50
2018-08-13T02:28:03.489Z,2.98
2018-08-13T02:30:31.899Z,3.62
2018-08-13T02:33:00.258Z,2.63
2018-08-13T02:35:28.554Z,4.00
2018-08-13T02:37:56.897Z,4.07
2018-08-13T02:40:25.291Z,3.30
2018-08-13T02:42:53.652Z,4.72
2018-08-13T02:45:22.044Z,3.33
2018-08-13T02:47:50.397Z,2.80
2018-08-13T02:50:18.830Z,3.75
2018-08-13T02:52:47.175Z,5.60
2018-08-13T02:55:15.510Z,3.37
2018-08-13T02:57:43.866Z,3.95
2018-08-13T03:00:12.545Z,3.77
2018-08-13T03:02:41.221Z,2.93
2018-08-13T03:05:11.967Z,3.70
2018-08-13T03:07:41.025Z,4.10
2018-08-13T03:10:12.503Z,3.95
2018-08-13T03:12:41.092Z,3.08
2018-08-13T03:15:13.397Z,4.73
2018-08-13T03:17:41.830Z,2.77
2018-08-13T03:20:10.369Z,7.53
2018-08-13T03:22:38.727Z,4.80
2018-08-13T03:25:08.979Z,6.53
2018-08-13T03:27:37.419Z,3.50
2018-08-13T03:30:10.019Z,8.88
2018-08-13T03:32:38.656Z,3.53
2018-08-13T03:35:07.295Z,2.72
2018-08-13T03:37:35.683Z,2.60
2018-08-13T03:40:05.281Z,6.60
2018-08-13T03:42:33.620Z,3.80
2018-08-13T03:45:08.511Z,2.63
2018-08-13T03:47:36.903Z,3.40
2018-08-13T03:50:06.766Z,4.22
2018-08-13T03:52:35.142Z,3.17
2018-08-13T03:55:03.520Z,3.77
2018-08-13T03:57:31.846Z,3.52
2018-08-13T04:00:00.366Z,6.20
2018-08-13T04:02:29.008Z,7.20
2018-08-13T04:04:57.386Z,5.83
2018-08-13T04:07:25.711Z,4.53
2018-08-13T04:09:54.071Z,7.40
2018-08-13T04:12:22.397Z,6.30
2018-08-13T04:14:50.741Z,4.17
2018-08-13T04:17:19.097Z,8.57
2018-08-13T04:19:47.541Z,10.00
2018-08-13T04:22:15.899Z,4.70
2018-08-13T04:24:44.196Z,11.73
2018-08-13T04:27:12.555Z,3.77
2018-08-13T04:29:41.068Z,7.30
2018-08-13T04:32:09.402Z,5.60
2018-08-13T04:34:37.750Z,3.77
2018-08-13T04:37:06.107Z,7.55
2018-08-13T04:39:34.472Z,4.62
2018-08-13T04:42:02.885Z,4.00
2018-08-13T04:44:31.236Z,11.23
2018-08-13T04:46:59.580Z,6.13
2018-08-13T04:49:28.086Z,8.17
2018-08-13T04:51:56.466Z,3.80
2018-08-13T04:54:24.917Z,6.83
2018-08-13T04:56:53.274Z,5.85
2018-08-13T04:59:21.691Z,5.87
2018-08-13T05:01:50.052Z,4.03
2018-08-13T05:04:18.432Z,5.95
2018-08-13T05:06:46.790Z,4.05
2018-08-13T05:09:15.130Z,5.00
2018-08-13T05:11:43.502Z,4.70
2018-08-13T05:14:11.821Z,6.50
2018-08-13T05:16:40.201Z,5.80
2018-08-13T05:19:08.618Z,4.67
2018-08-13T05:21:36.945Z,7.15
2018-08-13T05:24:05.365Z,5.37
2018-08-13T05:26:33.721Z,4.80
2018-08-13T05:29:02.096Z,5.15
2018-08-13T05:31:30.524Z,8.90
2018-08-13T05:33:59.104Z,5.10
2018-08-13T05:36:27.447Z,6.03
2018-08-13T05:38:55.765Z,5.33
2018-08-13T05:41:24.113Z,5.10
2018-08-13T05:43:52.474Z,6.10
2018-08-13T05:46:20.815Z,5.67
2018-08-13T05:48:49.161Z,5.17
2018-08-13T05:51:17.489Z,9.83
2018-08-13T05:53:45.825Z,26.57
2018-08-13T05:56:14.325Z,10.70
2018-08-13T05:58:42.815Z,11.35
2018-08-13T06:01:11.165Z,8.48
2018-08-13T06:03:39.580Z,7.90
2018-08-13T06:06:07.989Z,5.60
2018-08-13T06:08:36.337Z,6.20
2018-08-13T06:11:04.660Z,14.00
2018-08-13T06:13:33.026Z,24.92
2018-08-13T06:16:01.393Z,18.60
2018-08-13T06:18:30.037Z,9.53
2018-08-13T06:20:58.422Z,6.10
2018-08-13T06:23:26.892Z,5.50
2018-08-13T06:25:55.860Z,5.78
2018-08-13T06:28:24.434Z,5.33
2018-08-13T06:30:52.841Z,6.80
2018-08-13T06:33:21.301Z,5.50
2018-08-13T06:35:49.661Z,16.30
2018-08-13T06:38:18.007Z,16.17
2018-08-13T06:40:46.385Z,20.55
2018-08-13T06:43:14.681Z,11.35
2018-08-13T06:45:43.076Z,9.13
2018-08-13T06:48:11.455Z,6.90
2018-08-13T06:50:39.898Z,4.65
2018-08-13T06:53:08.253Z,5.25
2018-08-13T06:55:36.616Z,3.65
2018-08-13T06:58:05.696Z,4.50
2018-08-13T07:00:34.020Z,8.20
2018-08-13T07:03:02.433Z,7.20
2018-08-13T07:05:31.592Z,7.60
2018-08-13T07:07:59.947Z,7.90
2018-08-13T07:10:32.468Z,4.72
2018-08-13T07:13:01.843Z,7.50
2018-08-13T07:15:30.237Z,7.67
2018-08-13T07:17:58.581Z,6.00
2018-08-13T07:20:26.952Z,6.35
2018-08-13T07:22:55.351Z,7.25
2018-08-13T07:25:23.755Z,5.53
2018-08-13T07:27:52.155Z,7.03
2018-08-13T07:30:20.516Z,6.83
2018-08-13T07:32:48.917Z,6.60
2018-08-13T07:35:17.287Z,4.30
2018-08-13T07:37:45.612Z,4.80
2018-08-13T07:40:15.665Z,4.60
2018-08-13T07:42:44.176Z,7.35
2018-08-13T07:45:12.613Z,5.83
2018-08-13T07:47:41.199Z,5.70
2018-08-13T07:50:11.604Z,4.83
2018-08-13T07:52:40.186Z,4.50
2018-08-13T07:55:09.244Z,4.05
2018-08-13T07:57:37.876Z,5.92
2018-08-13T08:00:07.540Z,4.37
2018-08-13T08:02:35.868Z,5.80
2018-08-13T08:05:05.078Z,4.17
2018-08-13T08:07:33.526Z,9.30
2018-08-13T08:10:01.933Z,5.10
2018-08-13T08:12:30.368Z,4.30
2018-08-13T08:14:58.771Z,4.07
2018-08-13T08:17:27.116Z,4.20
2018-08-13T08:19:55.436Z,5.83
2018-08-13T08:22:23.792Z,4.83
2018-08-13T08:24:52.139Z,4.50
2018-08-13T08:27:20.507Z,7.73
2018-08-13T08:29:48.979Z,7.77
2018-08-13T08:32:17.451Z,4.47
2018-08-13T08:34:45.862Z,4.53
2018-08-13T08:37:14.215Z,5.40
2018-08-13T08:39:42.523Z,8.10
2018-08-13T08:42:10.874Z,7.25
2018-08-13T08:44:39.298Z,5.17
2018-08-13T08:47:07.693Z,7.53
2018-08-13T08:49:36.069Z,4.72
2018-08-13T08:52:04.602Z,4.55
2018-08-13T08:54:32.966Z,3.50
2018-08-13T08:57:01.311Z,4.33
2018-08-13T08:59:30.101Z,5.20
2018-08-13T09:01:58.440Z,5.97
2018-08-13T09:04:26.860Z,4.62
2018-08-13T09:06:55.197Z,4.73
2018-08-13T09:09:23.530Z,3.87
2018-08-13T09:11:51.880Z,6.25
2018-08-13T09:14:20.239Z,3.77
2018-08-13T09:16:50.287Z,4.53
2018-08-13T09:19:30.124Z,2.30
2018-08-13T09:22:11.543Z,2.87
2018-08-13T09:24:51.218Z,7.28
2018-08-13T09:27:30.893Z,4.47
2018-08-13T09:30:10.747Z,4.35
2018-08-13T09:32:50.428Z,3.08
2018-08-13T09:35:21.325Z,4.00
2018-08-13T09:37:49.618Z,2.70
2018-08-13T09:40:17.916Z,3.40
2018-08-13T09:42:46.281Z,2.53
2018-08-13T09:45:14.641Z,4.60
2018-08-13T09:47:42.956Z,4.00
2018-08-13T09:50:13.687Z,4.03
2018-08-13T09:52:42.453Z,4.30
2018-08-13T09:55:11.008Z,4.22
2018-08-13T09:57:39.377Z,9.13
2018-08-13T10:00:13.890Z,4.90
2018-08-13T10:02:42.920Z,4.00
2018-08-13T10:05:11.379Z,3.70
2018-08-13T10:07:39.754Z,4.42
2018-08-13T10:10:08.791Z,3.10
2018-08-13T10:12:37.108Z,3.42
2018-08-13T10:15:07.091Z,2.42
2018-08-13T10:17:35.576Z,2.40
2018-08-13T10:20:05.380Z,3.90
2018-08-13T10:22:33.767Z,2.67
2018-08-13T10:25:02.459Z,5.25
2018-08-13T10:27:30.777Z,2.02
2018-08-13T10:29:59.175Z,2.10
2018-08-13T10:32:27.687Z,4.30
2018-08-13T10:34:56.114Z,3.25
2018-08-13T10:37:24.499Z,5.60
2018-08-13T10:39:52.876Z,4.53
2018-08-13T10:42:21.233Z,4.60
2018-08-13T10:44:49.643Z,3.65
2018-08-13T10:47:17.979Z,2.80
2018-08-13T10:49:46.320Z,21.82
2018-08-13T10:52:14.696Z,12.75
2018-08-13T10:54:43.045Z,7.10
2018-08-13T10:57:11.382Z,10.63
2018-08-13T10:59:39.826Z,14.90
2018-08-13T11:02:08.208Z,7.28
2018-08-13T11:04:36.752Z,7.50
2018-08-13T11:07:05.333Z,9.40
2018-08-13T11:09:33.669Z,3.35
2018-08-13T11:12:02.109Z,3.75
2018-08-13T11:14:30.495Z,5.60
2018-08-13T11:16:58.849Z,3.47
2018-08-13T11:19:27.214Z,2.45
2018-08-13T11:21:55.893Z,5.78
2018-08-13T11:24:24.327Z,3.62
2018-08-13T11:26:52.721Z,4.80
2018-08-13T11:29:21.104Z,3.92
2018-08-13T11:31:49.493Z,6.42
2018-08-13T11:34:17.878Z,9.48
2018-08-13T11:36:46.223Z,8.75
2018-08-13T11:39:14.654Z,3.98
2018-08-13T11:41:43.008Z,5.40
2018-08-13T11:44:11.425Z,4.63
2018-08-13T11:46:39.808Z,3.43
2018-08-13T11:49:08.184Z,4.70
2018-08-13T11:51:36.538Z,5.25
2018-08-13T11:54:05.074Z,2.30
2018-08-13T11:56:33.427Z,6.08
2018-08-13T11:59:02.372Z,5.15
2018-08-13T12:01:30.858Z,3.30
2018-08-13T12:03:59.224Z,5.05
2018-08-13T12:06:27.600Z,4.12
2018-08-13T12:08:55.935Z,2.08
2018-08-13T12:11:24.393Z,3.87
2018-08-13T12:13:52.776Z,3.20
2018-08-13T12:16:21.136Z,3.37
2018-08-13T12:18:49.469Z,2.95
2018-08-13T12:21:17.887Z,3.58
2018-08-13T12:23:46.225Z,3.50
2018-08-13T12:26:14.610Z,2.40
2018-08-13T12:28:42.909Z,3.33
2018-08-13T12:31:11.241Z,4.47
2018-08-13T12:33:39.641Z,4.97
2018-08-13T12:36:08.011Z,2.80
2018-08-13T12:38:36.476Z,4.37
2018-08-13T12:41:04.996Z,3.58
2018-08-13T12:43:33.385Z,5.27
2018-08-13T12:46:01.745Z,3.20
2018-08-13T12:48:30.156Z,5.37
2018-08-13T12:50:58.518Z,3.80
2018-08-13T12:53:26.927Z,3.20
2018-08-13T12:55:55.393Z,3.60
2018-08-13T12:58:23.728Z,5.78
2018-08-13T13:00:58.101Z,5.40
2018-08-13T13:03:26.503Z,7.47
2018-08-13T13:05:54.892Z,5.83
2018-08-13T13:08:23.261Z,4.15
2018-08-13T13:10:51.576Z,2.75
2018-08-13T13:13:19.930Z,4.50
2018-08-13T13:15:48.429Z,4.30
2018-08-13T13:18:16.774Z,3.65
2018-08-13T13:20:45.481Z,4.80
2018-08-13T13:23:13.934Z,3.55
2018-08-13T13:25:42.352Z,4.10
2018-08-13T13:28:10.662Z,6.08
2018-08-13T13:30:39.030Z,9.10
2018-08-13T13:33:07.775Z,5.80
2018-08-13T13:35:36.167Z,15.20
2018-08-13T13:38:04.520Z,7.73
2018-08-13T13:40:32.941Z,7.53
2018-08-13T13:43:01.375Z,8.97
2018-08-13T13:45:29.751Z,9.40
2018-08-13T13:47:58.108Z,8.17
2018-08-13T13:50:26.512Z,11.57
2018-08-13T13:52:55.196Z,9.53
2018-08-13T13:55:23.581Z,5.67
2018-08-13T13:57:51.991Z,8.90
2018-08-13T14:00:21.493Z,7.10
2018-08-13T14:02:51.461Z,6.80
2018-08-13T14:05:20.284Z,8.20
2018-08-13T14:07:48.661Z,9.78
2018-08-13T14:10:20.422Z,8.43
2018-08-13T14:12:48.803Z,10.38
2018-08-13T14:15:18.601Z,8.20
2018-08-13T14:17:47.171Z,7.87
2018-08-13T14:20:15.820Z,8.08
2018-08-13T14:22:44.252Z,7.28
2018-08-13T14:25:13.694Z,6.00
2018-08-13T14:27:42.065Z,4.03
2018-08-13T14:30:13.119Z,6.05
2018-08-13T14:32:41.505Z,3.33
2018-08-13T14:35:09.958Z,3.45
2018-08-13T14:37:38.648Z,3.00
2018-08-13T14:40:08.806Z,6.75
2018-08-13T14:42:37.189Z,4.10
2018-08-13T14:45:07.662Z,3.72
2018-08-13T14:47:36.077Z,3.58
2018-08-13T14:50:05.122Z,4.50
2018-08-13T14:52:33.469Z,4.40
2018-08-13T14:55:02.145Z,3.02
2018-08-13T14:57:30.530Z,3.77
2018-08-13T14:59:58.908Z,2.50
2018-08-13T15:02:27.271Z,3.67
2018-08-13T15:04:55.664Z,5.20
2018-08-13T15:07:24.237Z,4.17
2018-08-13T15:09:52.551Z,6.33
2018-08-13T15:12:20.924Z,3.90
2018-08-13T15:14:49.325Z,5.97
2018-08-13T15:17:17.716Z,6.70
2018-08-13T15:19:46.067Z,4.70
2018-08-13T15:22:14.481Z,5.50
2018-08-13T15:24:42.854Z,4.28
2018-08-13T15:27:11.297Z,3.00
2018-08-13T15:29:39.589Z,3.98
2018-08-13T15:32:56.204Z,3.52
2018-08-13T15:35:24.605Z,4.40
2018-08-13T15:37:52.988Z,5.58
2018-08-13T15:40:21.138Z,4.45
2018-08-13T15:42:49.834Z,4.30
2018-08-13T15:45:20.011Z,5.65
2018-08-13T15:47:49.051Z,6.45
2018-08-13T15:50:18.575Z,4.90
2018-08-13T15:52:47.536Z,4.03
2018-08-13T15:55:15.952Z,5.30
2018-08-13T15:57:44.924Z,3.57
2018-08-13T16:00:18.602Z,5.10
2018-08-13T16:02:47.303Z,5.30
2018-08-13T16:05:15.645Z,8.05
2018-08-13T16:07:44.131Z,6.75
2018-08-13T16:10:13.990Z,8.75
2018-08-13T16:12:43.017Z,7.37
2018-08-13T16:15:11.362Z,10.50
2018-08-13T16:17:40.168Z,26.48
2018-08-13T16:20:15.929Z,14.30
2018-08-13T16:22:45.111Z,10.72
2018-08-13T16:25:13.561Z,14.13
2018-08-13T16:27:42.236Z,15.37
2018-08-13T16:30:16.262Z,14.50
2018-08-13T16:32:45.232Z,9.30
2018-08-13T16:35:13.653Z,15.30
2018-08-13T16:37:42.055Z,13.72
2018-08-13T16:40:10.487Z,22.93
2018-08-13T16:42:39.174Z,14.40
2018-08-13T16:45:08.254Z,10.70
2018-08-13T16:47:36.963Z,10.20
2018-08-13T16:50:11.633Z,10.48
2018-08-13T16:52:39.988Z,14.10
2018-08-13T16:55:08.764Z,10.30
2018-08-13T16:57:37.146Z,17.30
2018-08-13T17:00:07.848Z,12.63
2018-08-13T17:02:36.310Z,12.80
2018-08-13T17:05:05.508Z,12.55
2018-08-13T17:07:33.889Z,10.32
2018-08-13T17:10:02.275Z,8.43
2018-08-13T17:12:30.646Z,13.48
2018-08-13T17:14:58.998Z,10.53
2018-08-13T17:17:27.422Z,8.35
2018-08-13T17:19:55.753Z,10.35
2018-08-13T17:22:24.114Z,11.30
2018-08-13T17:24:53.623Z,11.03
2018-08-13T17:27:21.993Z,10.28
2018-08-13T17:29:50.403Z,14.25
2018-08-13T17:32:18.780Z,11.05
2018-08-13T17:34:47.160Z,11.43
2018-08-13T17:37:15.497Z,9.18
2018-08-13T17:39:43.899Z,12.30
2018-08-13T17:42:12.260Z,8.70
2018-08-13T17:44:40.637Z,10.68
2018-08-13T17:47:09.103Z,8.85
2018-08-13T17:49:37.481Z,11.08
2018-08-13T17:52:05.839Z,15.15
2018-08-13T17:54:34.247Z,17.73
2018-08-13T17:57:02.818Z,19.55
2018-08-13T17:59:31.200Z,15.55
2018-08-13T18:01:59.552Z,13.72
2018-08-13T18:04:27.942Z,12.33
2018-08-13T18:06:56.258Z,11.50
2018-08-13T18:09:24.630Z,13.08
2018-08-13T18:11:52.958Z,14.25
2018-08-13T18:14:21.406Z,19.55
2018-08-13T18:16:49.752Z,13.62
2018-08-13T18:19:18.244Z,15.38
2018-08-13T18:21:46.630Z,16.17
2018-08-13T18:24:15.059Z,10.83
2018-08-13T18:26:43.381Z,13.07
2018-08-13T18:29:11.815Z,10.83
2018-08-13T18:31:40.136Z,13.00
2018-08-13T18:34:08.743Z,12.70
2018-08-13T18:36:37.065Z,12.28
2018-08-13T18:39:07.403Z,10.80
2018-08-13T18:41:35.787Z,14.47
2018-08-13T18:44:04.608Z,15.43
2018-08-13T18:46:33.059Z,12.70
2018-08-13T18:49:01.456Z,13.20
2018-08-13T18:51:29.872Z,13.43
2018-08-13T18:53:58.221Z,14.77
2018-08-13T18:56:26.537Z,11.93
2018-08-13T18:58:54.878Z,12.90
2018-08-13T19:01:23.295Z,12.27
2018-08-13T19:03:51.904Z,11.20
2018-08-13T19:06:20.257Z,10.72
2018-08-13T19:08:48.659Z,15.35
2018-08-13T19:11:17.053Z,10.28
2018-08-13T19:13:45.459Z,10.72
2018-08-13T19:16:13.942Z,12.35
2018-08-13T19:18:42.320Z,16.07
2018-08-13T19:21:10.777Z,10.80
2018-08-13T19:23:39.235Z,10.55
2018-08-13T19:26:07.890Z,10.40
2018-08-13T19:28:36.358Z,10.08
2018-08-13T19:31:04.724Z,10.90
2018-08-13T19:33:33.129Z,9.90
2018-08-13T19:36:01.504Z,10.98
2018-08-13T19:38:29.915Z,13.53
2018-08-13T19:40:58.267Z,11.63
2018-08-13T19:43:26.641Z,13.53
2018-08-13T19:45:55.063Z,13.32
2018-08-13T19:48:23.380Z,10.30
2018-08-13T19:50:51.748Z,11.05
2018-08-13T19:53:20.165Z,11.20
2018-08-13T19:55:48.610Z,9.60
2018-08-13T19:58:16.963Z,8.90
2018-08-13T20:00:45.332Z,11.03
2018-08-13T20:03:14.313Z,8.05
2018-08-13T20:05:42.845Z,10.05
2018-08-13T20:08:11.371Z,9.07
2018-08-13T20:10:39.732Z,8.83
2018-08-13T20:13:08.077Z,7.17
2018-08-13T20:15:36.457Z,6.83
2018-08-13T20:18:05.404Z,8.80
2018-08-13T20:20:33.798Z,8.40
2018-08-13T20:23:02.141Z,8.00
2018-08-13T20:25:30.525Z,7.97
2018-08-13T20:27:58.911Z,7.53
2018-08-13T20:30:27.595Z,7.40
2018-08-13T20:32:55.942Z,6.83
2018-08-13T20:35:24.375Z,7.92
2018-08-13T20:37:52.755Z,7.90
2018-08-13T20:40:21.783Z,9.13
2018-08-13T20:42:50.495Z,6.72
2018-08-13T20:45:20.387Z,7.47
2018-08-13T20:47:49.160Z,7.22
2018-08-13T20:50:19.757Z,7.47
2018-08-13T20:52:49.096Z,8.10
2018-08-13T20:55:19.245Z,8.75
2018-08-13T20:57:48.628Z,10.33
2018-08-13T21:00:18.414Z,8.90
2018-08-13T21:02:47.537Z,9.40
2018-08-13T21:05:16.397Z,10.78
2018-08-13T21:07:45.823Z,11.12
2018-08-13T21:10:15.913Z,10.77
2018-08-13T21:12:44.335Z,11.33
2018-08-13T21:15:14.105Z,10.47
2018-08-13T21:17:42.596Z,10.72
2018-08-13T21:20:12.536Z,12.70
2018-08-13T21:22:40.992Z,10.63
2018-08-13T21:25:12.329Z,11.45
2018-08-13T21:27:41.328Z,10.55
2018-08-13T21:30:09.743Z,11.13
2018-08-13T21:32:38.128Z,11.12
2018-08-13T21:35:06.601Z,10.03
2018-08-13T21:37:35.351Z,14.63
2018-08-13T21:40:03.792Z,10.33
2018-08-13T21:42:32.159Z,10.13
2018-08-13T21:45:00.496Z,11.90
2018-08-13T21:47:28.884Z,10.37
2018-08-13T21:49:57.348Z,10.30
2018-08-13T21:52:25.785Z,11.78
2018-08-13T21:54:54.243Z,10.50
2018-08-13T21:58:06.742Z,12.47
2018-08-13T22:00:40.569Z,11.20
2018-08-13T22:03:10.066Z,15.13
2018-08-13T22:05:38.397Z,10.82
2018-08-13T22:08:07.021Z,9.18
2018-08-13T22:10:35.372Z,9.95
2018-08-13T22:13:03.873Z,10.65
2018-08-13T22:15:33.244Z,12.00
2018-08-13T22:18:03.960Z,10.13
2018-08-13T22:20:33.774Z,9.63
2018-08-13T22:23:02.818Z,16.60
2018-08-13T22:25:41.897Z,10.60
2018-08-13T22:28:11.284Z,9.40
2018-08-13T22:30:39.752Z,12.78
2018-08-13T22:33:08.856Z,9.28
2018-08-13T22:35:37.305Z,10.78
2018-08-13T22:38:06.289Z,8.90
2018-08-13T22:40:34.680Z,9.68
2018-08-13T22:43:03.065Z,11.65
2018-08-13T22:45:31.379Z,9.43
2018-08-13T22:47:59.884Z,10.38
2018-08-13T22:50:28.267Z,11.85
2018-08-13T22:52:56.667Z,10.55
2018-08-13T22:55:25.030Z,10.65
2018-08-13T22:57:53.414Z,12.03
2018-08-13T23:00:22.008Z,12.00
2018-08-13T23:02:51.160Z,9.80
2018-08-13T23:05:21.947Z,11.80
2018-08-13T23:07:50.415Z,11.20
2018-08-13T23:10:20.654Z,11.97
2018-08-13T23:12:50.402Z,9.93
2018-08-13T23:15:18.983Z,9.73
2018-08-13T23:17:47.489Z,10.93
2018-08-13T23:20:21.203Z,10.53
2018-08-13T23:22:52.383Z,10.08
2018-08-13T23:25:20.907Z,14.30
2018-08-13T23:27:50.513Z,11.43
2018-08-13T23:30:19.024Z,10.13
2018-08-13T23:32:49.446Z,8.30
2018-08-13T23:35:18.808Z,10.30
2018-08-13T23:37:47.229Z,10.88
2018-08-13T23:40:15.552Z,8.90
2018-08-13T23:42:43.900Z,12.03
2018-08-13T23:45:14.687Z,9.58
2018-08-13T23:47:43.149Z,12.37
2018-08-13T23:50:14.236Z,8.35
2018-08-13T23:52:42.697Z,11.55
2018-08-13T23:55:45.560Z,9.90
2018-08-13T23:58:14.425Z,9.20
